Historia METAR Ameland Airport Ballum (EHAL)

14 sierpnia 2022

Czas Kod Pogoda Temp. Widoczność Sufit Wiatr METAR/SPECI
01:55
V
23 °C 10 km+ - 100° 100° 17 kt METAR EHMA 132355Z AUTO 10017KT 9999 NCD 23/18 Q1014
01:25
V
23 °C 10 km+ - 100° 100° 19 kt METAR EHMA 132325Z AUTO 10019KT 9999 NSC 23/18 Q1014
00:55
V
23 °C 10 km+ - 110° 110° 15 kt METAR EHMA 132255Z AUTO 11015KT 9999 NSC 23/19 Q1014
00:25
V
22 °C 10 km+ - 090° 090° 14 kt METAR EHMA 132225Z AUTO 09014KT 9999 NSC 22/18 Q1015

13 sierpnia 2022

Czas Kod Pogoda Temp. Widoczność Sufit Wiatr METAR/SPECI
23:55
V
22 °C 10 km+ - 080° 080° 15 kt METAR EHMA 132155Z AUTO 08015KT 9999 NSC 22/17 Q1015
23:25
V
23 °C 10 km+ - 080° 080° 14 kt METAR EHMA 132125Z AUTO 08014KT 9999 NSC 23/17 Q1015
22:55
V
23 °C 10 km+ - 080° 080° 18 kt METAR EHMA 132055Z AUTO 08018KT 9999 NSC 23/17 Q1015
22:25
V
23 °C 10 km+ - 080° 080° 16 kt METAR EHMA 132025Z AUTO 08016KT 9999 NSC 23/17 Q1015
21:55
V
23 °C 10 km+ - 080° 080° 15 kt METAR EHMA 131955Z AUTO 08015KT 9999 NSC 23/17 Q1015
21:25
V
23 °C 10 km+ - 080° 080° 16 kt METAR EHMA 131925Z AUTO 08016KT 9999 NSC 23/17 Q1015
20:55
V
23 °C 10 km+ - 070° 070° 17 kt METAR EHMA 131855Z AUTO 07017KT 9999 NSC 23/16 Q1015
20:25
V
24 °C 10 km+ - 070° 070° 18 kt METAR EHMA 131825Z AUTO 07018KT 060V130 9999 NCD 24/15 Q1015
19:55
V
24 °C 10 km+ - 070° 070° 19 kt METAR EHMA 131755Z AUTO 07019KT 9999 NCD 24/15 Q1015
19:25
V
25 °C 10 km+ - 070° 070° 19 kt METAR EHMA 131725Z AUTO 07019KT 9999 NCD 25/15 Q1015
18:55
V
25 °C 10 km+ - 070° 070° 19 kt METAR EHMA 131655Z AUTO 07019KT 9999 NCD 25/15 Q1015
18:25
V
24 °C 10 km+ - 070° 070° 19 kt METAR EHMA 131625Z AUTO 07019KT 9999 NCD 24/16 Q1016
17:55
V
24 °C 10 km+ - 070° 070° 18 kt METAR EHMA 131555Z AUTO 07018KT 060V130 9999 NCD 24/16 Q1016
17:25
V
25 °C 10 km+ - 070° 070° 18 kt METAR EHMA 131525Z AUTO 07018KT 9999 NCD 25/15 Q1016
16:55
V
24 °C 10 km+ - 070° 070° 18 kt METAR EHMA 131455Z AUTO 07018KT 9999 NCD 24/17 Q1017
16:25
V
24 °C 10 km+ - 070° 070° 17 kt METAR EHMA 131425Z AUTO 07017KT 9999 NCD 24/17 Q1017
15:55
V
24 °C 10 km+ - 070° 070° 17 kt METAR EHMA 131355Z AUTO 07017KT 9999 NCD 24/17 Q1017
15:25
V
25 °C 10 km+ - 080° 080° 13 kt METAR EHMA 131325Z AUTO 08013KT 9999 NCD 25/16 Q1017
14:55
V
25 °C 10 km+ - 080° 080° 13 kt METAR EHMA 131255Z AUTO 08013KT 9999 NCD 25/15 Q1017
14:25
V
25 °C 10 km+ - 080° 080° 14 kt METAR EHMA 131225Z AUTO 08014KT 9999 NCD 25/15 Q1018
13:55
V
24 °C 10 km+ - 090° 090° 12 kt METAR EHMA 131155Z AUTO 09012KT 9999 NCD 24/17 Q1018
13:25
V
24 °C 10 km+ - 090° 090° 10 kt METAR EHMA 131125Z AUTO 09010KT 040V100 9999 NCD 24/16 Q1018
12:55
V
25 °C 10 km+ - 100° 100° 7 kt METAR EHMA 131055Z AUTO 10007KT 9999 NCD 25/15 Q1018
12:25
V
25 °C 10 km+ - 120° 120° 7 kt METAR EHMA 131025Z AUTO 12007KT 9999 NCD 25/14 Q1018
11:55
V
24 °C 10 km+ - 100° 100° 9 kt METAR EHMA 130955Z AUTO 10009KT 9999 NCD 24/15 Q1019
11:25
V
24 °C 10 km+ - 110° 110° 11 kt METAR EHMA 130925Z AUTO 11011KT 9999 NCD 24/15 Q1019
10:55
V
23 °C 10 km+ - 120° 120° 13 kt METAR EHMA 130855Z AUTO 12013KT 9999 NSC 23/15 Q1019
10:25
V
22 °C 10 km+ - 120° 120° 13 kt METAR EHMA 130825Z AUTO 12013KT 9999 NSC 22/15 Q1019
09:55
V
22 °C 10 km+ - 120° 120° 11 kt METAR EHMA 130755Z AUTO 12011KT 9999 NCD 22/16 Q1018
09:25
V
22 °C 10 km+ - 120° 120° 14 kt METAR EHMA 130725Z AUTO 12014KT 9999 NCD 22/15 Q1018
08:55
V
21 °C 10 km+ - 130° 130° 11 kt METAR EHMA 130655Z AUTO 13011KT 9999 NCD 21/15 Q1018
08:25
V
21 °C 10 km+ - 130° 130° 13 kt METAR EHMA 130625Z AUTO 13013KT 9999 NCD 21/14 Q1018
07:55
V
21 °C 10 km+ - 130° 130° 14 kt METAR EHMA 130555Z AUTO 13014KT 9999 NCD 21/13 Q1018
07:25
V
21 °C 10 km+ - 130° 130° 17 kt METAR EHMA 130525Z AUTO 13017KT 9999 NCD 21/13 Q1018
06:55
V
21 °C 10 km+ - 130° 130° 16 kt METAR EHMA 130455Z AUTO 13016KT 9999 NCD 21/14 Q1018
06:25
V
21 °C 10 km+ - 130° 130° 17 kt METAR EHMA 130425Z AUTO 13017KT 9999 NCD 21/15 Q1018
05:55
V
21 °C 10 km+ - 130° 130° 16 kt METAR EHMA 130355Z AUTO 13016KT 9999 NCD 21/15 Q1018
05:25
V
21 °C 10 km+ - 130° 130° 17 kt METAR EHMA 130325Z AUTO 13017KT 9999 NCD 21/15 Q1018
04:55
V
21 °C 10 km+ - 120° 120° 16 kt METAR EHMA 130255Z AUTO 12016KT 9999 NCD 21/16 Q1018
04:25
V
21 °C 10 km+ - 120° 120° 14 kt METAR EHMA 130225Z AUTO 12014KT 9999 NCD 21/16 Q1018
03:55
V
21 °C 10 km+ - 110° 110° 13 kt METAR EHMA 130155Z AUTO 11013KT 9999 NCD 21/16 Q1018
03:25
V
21 °C 10 km+ - 100° 100° 11 kt METAR EHMA 130125Z AUTO 10011KT 9999 NCD 21/19 Q1018
02:55
V
21 °C 10 km+ - 110° 110° 11 kt METAR EHMA 130055Z AUTO 11011KT 9999 NCD 21/19 Q1018
02:25
V
21 °C 10 km+ - 100° 100° 10 kt METAR EHMA 130025Z AUTO 10010KT 9999 NCD 21/19 Q1018
01:55
V
21 °C 10 km+ - 090° 090° 12 kt METAR EHMA 122355Z AUTO 09012KT 9999 NCD 21/19 Q1018
01:25
V
21 °C 10 km+ - 090° 090° 13 kt METAR EHMA 122325Z AUTO 09013KT 9999 NCD 21/18 Q1019
00:55
V
21 °C 10 km+ - 080° 080° 14 kt METAR EHMA 122255Z AUTO 08014KT 9999 NCD 21/18 Q1019
00:25
V
22 °C 10 km+ - 080° 080° 15 kt METAR EHMA 122225Z AUTO 08015KT 9999 NCD 22/18 Q1019

12 sierpnia 2022

Czas Kod Pogoda Temp. Widoczność Sufit Wiatr METAR/SPECI
23:55
V
22 °C 10 km+ - 080° 080° 15 kt METAR EHMA 122155Z AUTO 08015KT 9999 NCD 22/17 Q1019
23:25
V
22 °C 10 km+ - 080° 080° 14 kt METAR EHMA 122125Z AUTO 08014KT 9999 NCD 22/17 Q1019
22:55
V
21 °C 10 km+ - 070° 070° 14 kt METAR EHMA 122055Z AUTO 07014KT 050V110 9999 NCD 21/18 Q1019
22:25
V
21 °C 10 km+ - 060° 060° 13 kt METAR EHMA 122025Z AUTO 06013KT 9999 NCD 21/18 Q1019
21:55
V
22 °C 10 km+ - 060° 060° 14 kt METAR EHMA 121955Z AUTO 06014KT 9999 NCD 22/18 Q1019
21:25
V
22 °C 10 km+ - 050° 050° 14 kt METAR EHMA 121925Z AUTO 05014KT 9999 NCD 22/17 Q1019
20:55
V
23 °C 10 km+ - 060° 060° 15 kt METAR EHMA 121855Z AUTO 06015KT 9999 NCD 23/17 Q1019
20:25
V
23 °C 10 km+ - 070° 070° 15 kt METAR EHMA 121825Z AUTO 07015KT 9999 NCD 23/17 Q1019
19:55
V
23 °C 10 km+ - 070° 070° 14 kt METAR EHMA 121755Z AUTO 07014KT 9999 NCD 23/17 Q1018
19:25
V
23 °C 10 km+ - 060° 060° 14 kt METAR EHMA 121725Z AUTO 06014KT 9999 NCD 23/17 Q1019
18:55
V
22 °C 10 km+ - 060° 060° 13 kt METAR EHMA 121655Z AUTO 06013KT 9999 NCD 22/18 Q1019
18:25
V
22 °C 10 km+ - 060° 060° 14 kt METAR EHMA 121625Z AUTO 06014KT 9999 NCD 22/18 Q1019
17:55
V
22 °C 10 km+ - 060° 060° 13 kt METAR EHMA 121555Z AUTO 06013KT 9999 NCD 22/18 Q1019
17:25
V
21 °C 10 km+ - 050° 050° 12 kt METAR EHMA 121525Z AUTO 05012KT 9999 NCD 21/18 Q1020
16:55
V
21 °C 10 km+ - 050° 050° 12 kt METAR EHMA 121455Z AUTO 05012KT 9999 NCD 21/17 Q1020
16:25
V
22 °C 10 km+ - 060° 060° 13 kt METAR EHMA 121425Z AUTO 06013KT 9999 NCD 22/18 Q1020
15:55
V
22 °C 10 km+ - 060° 060° 13 kt METAR EHMA 121355Z AUTO 06013KT 9999 NCD 22/17 Q1020
15:25
V
22 °C 10 km+ - 060° 060° 13 kt METAR EHMA 121325Z AUTO 06013KT 9999 NCD 22/17 Q1020
14:55
V
21 °C 10 km+ - 060° 060° 13 kt METAR EHMA 121255Z AUTO 06013KT 9999 NCD 21/17 Q1020
14:25
V
22 °C 10 km+ - 060° 060° 14 kt METAR EHMA 121225Z AUTO 06014KT 9999 NCD 22/17 Q1020
13:55
V
22 °C 10 km+ - 060° 060° 13 kt METAR EHMA 121155Z AUTO 06013KT 9999 NCD 22/17 Q1021
13:25
V
22 °C 10 km+ - 060° 060° 12 kt METAR EHMA 121125Z AUTO 06012KT 9999 NCD 22/18 Q1021
12:55
V
22 °C 10 km+ - 070° 070° 11 kt METAR EHMA 121055Z AUTO 07011KT 9999 NCD 22/18 Q1021
12:25
V
22 °C 10 km+ - 070° 070° 11 kt METAR EHMA 121025Z AUTO 07011KT 9999 NCD 22/18 Q1021
11:55
V
21 °C 10 km+ - 070° 070° 10 kt METAR EHMA 120955Z AUTO 07010KT 9999 NCD 21/19 Q1021
11:25
V
21 °C 10 km+ - 070° 070° 10 kt METAR EHMA 120925Z AUTO 07010KT 9999 NCD 21/18 Q1021
10:55
V
21 °C 10 km+ - 070° 070° 9 kt METAR EHMA 120855Z AUTO 07009KT 9999 NCD 21/18 Q1021
10:25
V
21 °C 10 km+ - 070° 070° 8 kt METAR EHMA 120825Z AUTO 07008KT 360V120 9999 NCD 21/19 Q1021
09:55
V
22 °C 10 km+ - 080° 080° 8 kt METAR EHMA 120755Z AUTO 08008KT 050V140 9999 NCD 22/17 Q1021
09:25
V
21 °C 10 km+ - 090° 090° 10 kt METAR EHMA 120725Z AUTO 09010KT 9999 NCD 21/17 Q1021
08:55
V
21 °C 10 km+ - 090° 090° 9 kt METAR EHMA 120655Z AUTO 09009KT 9999 NCD 21/18 Q1021
08:25
V
21 °C 10 km+ - 090° 090° 9 kt METAR EHMA 120625Z AUTO 09009KT 9999 NCD 21/19 Q1021
07:55
V
21 °C 10 km+ - 090° 090° 10 kt METAR EHMA 120555Z AUTO 09010KT 9999 NCD 21/19 Q1021
07:25
V
21 °C 10 km+ - 090° 090° 10 kt METAR EHMA 120525Z AUTO 09010KT 9999 NCD 21/19 Q1021
06:55
V
20 °C 10 km+ - 070° 070° 10 kt METAR EHMA 120455Z AUTO 07010KT 9999 NCD 20/19 Q1021
06:25
V
21 °C 10 km+ - 070° 070° 11 kt METAR EHMA 120425Z AUTO 07011KT 9999 NCD 21/18 Q1021
05:55
V
21 °C 10 km+ - 070° 070° 11 kt METAR EHMA 120355Z AUTO 07011KT 9999 NCD 21/18 Q1021
05:25
V
21 °C 10 km+ - 060° 060° 10 kt METAR EHMA 120325Z AUTO 06010KT 9999 NCD 21/18 Q1021
04:55
V
21 °C 10 km+ - 060° 060° 11 kt METAR EHMA 120255Z AUTO 06011KT 9999 NCD 21/18 Q1021
04:25
V
21 °C 10 km+ - 060° 060° 13 kt METAR EHMA 120225Z AUTO 06013KT 9999 NCD 21/17 Q1022
03:55
V
21 °C 10 km+ - 050° 050° 13 kt METAR EHMA 120155Z AUTO 05013KT 9999 NCD 21/17 Q1022
03:25
V
21 °C 10 km+ - 040° 040° 13 kt METAR EHMA 120125Z AUTO 04013KT 9999 NCD 21/17 Q1022
02:55
V
20 °C 10 km+ - 050° 050° 12 kt METAR EHMA 120055Z AUTO 05012KT 9999 NCD 20/18 Q1022
02:25
V
21 °C 10 km+ - 050° 050° 13 kt METAR EHMA 120025Z AUTO 05013KT 9999 NCD 21/17 Q1022
01:55
V
21 °C 10 km+ - 050° 050° 12 kt METAR EHMA 112355Z AUTO 05012KT 9999 NCD 21/17 Q1022
01:25
V
21 °C 10 km+ - 050° 050° 13 kt METAR EHMA 112325Z AUTO 05013KT 9999 NCD 21/17 Q1022
00:55
V
20 °C 10 km+ - 040° 040° 12 kt METAR EHMA 112255Z AUTO 04012KT 9999 NCD 20/17 Q1022
00:25
V
21 °C 10 km+ - 040° 040° 12 kt METAR EHMA 112225Z AUTO 04012KT 9999 NCD 21/17 Q1022

11 sierpnia 2022

Czas Kod Pogoda Temp. Widoczność Sufit Wiatr METAR/SPECI
23:55
V
21 °C 10 km+ - 050° 050° 11 kt METAR EHMA 112155Z AUTO 05011KT 9999 NCD 21/17 Q1022
23:25
V
21 °C 10 km+ - 050° 050° 12 kt METAR EHMA 112125Z AUTO 05012KT 9999 NCD 21/17 Q1022
22:55
V
21 °C 10 km+ - 060° 060° 11 kt METAR EHMA 112055Z AUTO 06011KT 9999 NCD 21/17 Q1022
22:25
V
21 °C 10 km+ - 070° 070° 12 kt METAR EHMA 112025Z AUTO 07012KT 9999 NCD 21/17 Q1022
21:55
V
21 °C 10 km+ - 070° 070° 12 kt METAR EHMA 111955Z AUTO 07012KT 9999 NCD 21/17 Q1022
21:25
V
22 °C 10 km+ - 080° 080° 11 kt METAR EHMA 111925Z AUTO 08011KT 9999 NCD 22/17 Q1022
20:55
V
22 °C 10 km+ - 080° 080° 12 kt METAR EHMA 111855Z AUTO 08012KT 9999 NCD 22/17 Q1022
20:25
V
22 °C 10 km+ - 070° 070° 12 kt METAR EHMA 111825Z AUTO 07012KT 9999 NCD 22/16 Q1022
19:55
V
22 °C 10 km+ - 070° 070° 11 kt METAR EHMA 111755Z AUTO 07011KT 9999 NCD 22/17 Q1022
19:25
V
22 °C 10 km+ - 060° 060° 12 kt METAR EHMA 111725Z AUTO 06012KT 9999 NCD 22/16 Q1022
18:55
V
22 °C 10 km+ - 060° 060° 11 kt METAR EHMA 111655Z AUTO 06011KT 9999 NCD 22/17 Q1022
18:25
V
22 °C 10 km+ - 060° 060° 12 kt METAR EHMA 111625Z AUTO 06012KT 9999 NCD 22/17 Q1022
17:55
V
21 °C 10 km+ - 050° 050° 12 kt METAR EHMA 111555Z AUTO 05012KT 9999 NCD 21/17 Q1023
17:25
V
21 °C 10 km+ - 050° 050° 13 kt METAR EHMA 111525Z AUTO 05013KT 9999 NCD 21/17 Q1023
16:55
V
21 °C 10 km+ - 040° 040° 13 kt METAR EHMA 111455Z AUTO 04013KT 9999 NCD 21/16 Q1023
Starsze dane

My i osoby trzecie śledzimy twoje zachowanie w internecie na naszej stronie za pomocą plików cookie. Jeśli kontynuujesz, zakładamy, że zgadzasz się z naszą polityką plików cookie. Dowiedz się więcej